sensor_id;sensor_type;location;lat;lon;timestamp;pressure;altitude;pressure_sealevel;temperature;humidity
6387;BME280;3226;42.162;24.756;2023-02-16T00:01:51;101070.41;;;1.06;77.38
6387;BME280;3226;42.162;24.756;2023-02-16T00:04:21;101058.47;;;1.00;77.14
6387;BME280;3226;42.162;24.756;2023-02-16T00:06:50;101059.41;;;0.96;76.82
6387;BME280;3226;42.162;24.756;2023-02-16T00:09:19;101057.22;;;0.76;78.26
6387;BME280;3226;42.162;24.756;2023-02-16T00:11:48;101057.38;;;0.68;79.16
6387;BME280;3226;42.162;24.756;2023-02-16T00:14:35;101058.53;;;0.99;77.80
6387;BME280;3226;42.162;24.756;2023-02-16T00:17:05;101060.22;;;1.00;77.59
6387;BME280;3226;42.162;24.756;2023-02-16T00:19:35;101058.72;;;0.88;79.08
6387;BME280;3226;42.162;24.756;2023-02-16T00:22:04;101060.44;;;0.88;78.71
6387;BME280;3226;42.162;24.756;2023-02-16T00:24:33;101047.66;;;0.83;79.23
6387;BME280;3226;42.162;24.756;2023-02-16T00:27:01;101055.78;;;1.07;78.78
6387;BME280;3226;42.162;24.756;2023-02-16T00:29:31;101051.88;;;0.87;78.37
6387;BME280;3226;42.162;24.756;2023-02-16T00:32:01;101030.06;;;0.60;79.26
6387;BME280;3226;42.162;24.756;2023-02-16T00:34:33;101046.91;;;0.76;79.44
6387;BME280;3226;42.162;24.756;2023-02-16T00:37:04;101045.84;;;0.88;78.45
6387;BME280;3226;42.162;24.756;2023-02-16T00:39:33;101053.19;;;0.63;80.01
6387;BME280;3226;42.162;24.756;2023-02-16T00:42:04;101046.19;;;0.69;79.69
6387;BME280;3226;42.162;24.756;2023-02-16T00:44:34;101041.56;;;0.85;79.45
6387;BME280;3226;42.162;24.756;2023-02-16T00:47:18;101048.34;;;0.91;79.45
6387;BME280;3226;42.162;24.756;2023-02-16T00:49:50;101052.53;;;0.97;78.76
6387;BME280;3226;42.162;24.756;2023-02-16T00:52:31;101027.97;;;0.79;78.95
6387;BME280;3226;42.162;24.756;2023-02-16T00:55:00;101037.69;;;1.08;78.38
6387;BME280;3226;42.162;24.756;2023-02-16T00:57:32;101046.09;;;1.18;78.07
6387;BME280;3226;42.162;24.756;2023-02-16T01:00:04;101041.94;;;1.11;77.99
6387;BME280;3226;42.162;24.756;2023-02-16T01:02:33;101040.94;;;1.17;78.09
6387;BME280;3226;42.162;24.756;2023-02-16T01:05:03;101041.69;;;1.23;77.65
6387;BME280;3226;42.162;24.756;2023-02-16T01:07:31;101041.75;;;1.19;78.01
6387;BME280;3226;42.162;24.756;2023-02-16T01:10:17;101046.94;;;1.19;77.67
6387;BME280;3226;42.162;24.756;2023-02-16T01:13:03;101055.88;;;1.02;78.69
6387;BME280;3226;42.162;24.756;2023-02-16T01:15:31;101047.44;;;0.94;79.25
6387;BME280;3226;42.162;24.756;2023-02-16T01:17:59;101051.88;;;0.87;79.07
6387;BME280;3226;42.162;24.756;2023-02-16T01:20:28;101049.41;;;0.81;79.42
6387;BME280;3226;42.162;24.756;2023-02-16T01:22:56;101034.56;;;0.94;79.23
6387;BME280;3226;42.162;24.756;2023-02-16T01:25:24;101040.81;;;0.82;79.05
6387;BME280;3226;42.162;24.756;2023-02-16T01:27:52;101038.25;;;0.80;79.08
6387;BME280;3226;42.162;24.756;2023-02-16T01:30:22;101033.19;;;0.74;79.37
6387;BME280;3226;42.162;24.756;2023-02-16T01:32:50;101028.88;;;0.76;79.85
6387;BME280;3226;42.162;24.756;2023-02-16T01:35:19;101009.19;;;0.72;79.02
6387;BME280;3226;42.162;24.756;2023-02-16T01:37:49;101016.84;;;0.77;78.50
6387;BME280;3226;42.162;24.756;2023-02-16T01:40:27;101024.09;;;0.56;79.96
6387;BME280;3226;42.162;24.756;2023-02-16T01:43:09;101025.09;;;0.47;80.32
6387;BME280;3226;42.162;24.756;2023-02-16T01:45:44;101032.59;;;0.61;79.28
6387;BME280;3226;42.162;24.756;2023-02-16T01:48:20;101040.56;;;0.47;79.45
6387;BME280;3226;42.162;24.756;2023-02-16T01:50:55;101038.34;;;0.27;80.60
6387;BME280;3226;42.162;24.756;2023-02-16T01:53:30;101037.22;;;0.43;79.96
6387;BME280;3226;42.162;24.756;2023-02-16T01:56:02;101030.38;;;0.41;79.45
6387;BME280;3226;42.162;24.756;2023-02-16T01:58:35;101013.34;;;0.34;79.16
6387;BME280;3226;42.162;24.756;2023-02-16T02:01:34;101030.56;;;0.30;79.96
6387;BME280;3226;42.162;24.756;2023-02-16T02:04:13;101015.03;;;0.35;79.54
6387;BME280;3226;42.162;24.756;2023-02-16T02:07:01;101028.78;;;0.34;79.52
6387;BME280;3226;42.162;24.756;2023-02-16T02:09:35;101022.75;;;0.35;79.18
6387;BME280;3226;42.162;24.756;2023-02-16T02:12:09;101028.09;;;0.25;79.07
6387;BME280;3226;42.162;24.756;2023-02-16T02:14:41;101036.00;;;0.14;79.63
6387;BME280;3226;42.162;24.756;2023-02-16T02:17:12;101014.63;;;0.08;79.25
6387;BME280;3226;42.162;24.756;2023-02-16T02:19:47;101030.66;;;0.25;79.09
6387;BME280;3226;42.162;24.756;2023-02-16T02:22:45;101024.75;;;0.20;79.59
6387;BME280;3226;42.162;24.756;2023-02-16T02:25:59;101024.94;;;0.09;79.83
6387;BME280;3226;42.162;24.756;2023-02-16T02:28:39;101027.63;;;0.02;80.50
6387;BME280;3226;42.162;24.756;2023-02-16T02:31:17;101018.91;;;0.09;79.87
6387;BME280;3226;42.162;24.756;2023-02-16T02:33:53;101027.22;;;0.25;78.95
6387;BME280;3226;42.162;24.756;2023-02-16T02:36:31;100988.97;;;0.02;78.84
6387;BME280;3226;42.162;24.756;2023-02-16T02:39:14;101005.47;;;-0.09;79.83
6387;BME280;3226;42.162;24.756;2023-02-16T02:41:51;101012.81;;;0.14;78.91
6387;BME280;3226;42.162;24.756;2023-02-16T02:44:38;101017.59;;;-0.14;81.03
6387;BME280;3226;42.162;24.756;2023-02-16T02:47:07;101036.75;;;-0.32;82.74
6387;BME280;3226;42.162;24.756;2023-02-16T02:49:35;101042.56;;;-0.22;83.47
6387;BME280;3226;42.162;24.756;2023-02-16T02:52:03;101039.94;;;-0.19;82.92
6387;BME280;3226;42.162;24.756;2023-02-16T02:54:33;101033.72;;;-0.04;83.19
6387;BME280;3226;42.162;24.756;2023-02-16T02:57:24;101021.16;;;-0.23;82.77
6387;BME280;3226;42.162;24.756;2023-02-16T03:00:16;101033.94;;;-0.18;83.57
6387;BME280;3226;42.162;24.756;2023-02-16T03:03:07;101039.84;;;-0.10;83.69
6387;BME280;3226;42.162;24.756;2023-02-16T03:05:38;101032.72;;;0.06;82.84
6387;BME280;3226;42.162;24.756;2023-02-16T03:08:09;101047.41;;;-0.01;83.09
6387;BME280;3226;42.162;24.756;2023-02-16T03:10:43;101036.13;;;0.07;82.83
6387;BME280;3226;42.162;24.756;2023-02-16T03:13:31;101032.72;;;0.06;82.44
6387;BME280;3226;42.162;24.756;2023-02-16T03:16:07;101036.13;;;0.07;82.28
6387;BME280;3226;42.162;24.756;2023-02-16T03:18:38;101022.06;;;-0.27;82.89
6387;BME280;3226;42.162;24.756;2023-02-16T03:21:26;101044.00;;;-0.03;83.23
6387;BME280;3226;42.162;24.756;2023-02-16T03:24:19;101038.81;;;0.01;82.17
6387;BME280;3226;42.162;24.756;2023-02-16T03:27:07;101041.69;;;-0.21;83.38
6387;BME280;3226;42.162;24.756;2023-02-16T03:29:53;101035.50;;;-0.08;83.24
6387;BME280;3226;42.162;24.756;2023-02-16T03:32:25;101032.88;;;-0.05;83.06
6387;BME280;3226;42.162;24.756;2023-02-16T03:34:53;101038.81;;;-0.01;83.07
6387;BME280;3226;42.162;24.756;2023-02-16T03:37:21;101032.84;;;-0.03;82.82
6387;BME280;3226;42.162;24.756;2023-02-16T03:39:49;101030.31;;;-0.06;82.26
6387;BME280;3226;42.162;24.756;2023-02-16T03:42:35;101027.78;;;-0.08;82.14
6387;BME280;3226;42.162;24.756;2023-02-16T03:45:03;101021.81;;;-0.10;81.73
6387;BME280;3226;42.162;24.756;2023-02-16T03:47:33;101031.34;;;-0.15;82.34
6387;BME280;3226;42.162;24.756;2023-02-16T03:50:00;101027.78;;;-0.09;82.31
6387;BME280;3226;42.162;24.756;2023-02-16T03:52:28;101027.72;;;-0.06;81.71
6387;BME280;3226;42.162;24.756;2023-02-16T03:54:56;101031.34;;;-0.18;82.37
6387;BME280;3226;42.162;24.756;2023-02-16T03:57:26;101026.34;;;-0.26;82.54
6387;BME280;3226;42.162;24.756;2023-02-16T03:59:54;101023.91;;;-0.35;83.00
6387;BME280;3226;42.162;24.756;2023-02-16T04:02:26;101028.25;;;-0.40;82.63
6387;BME280;3226;42.162;24.756;2023-02-16T04:04:56;101019.81;;;-0.47;83.44
6387;BME280;3226;42.162;24.756;2023-02-16T04:07:24;100943.34;;;-1.00;83.96
6387;BME280;3226;42.162;24.756;2023-02-16T04:09:52;101018.00;;;-0.44;83.28
6387;BME280;3226;42.162;24.756;2023-02-16T04:12:20;101033.53;;;-0.50;83.77
6387;BME280;3226;42.162;24.756;2023-02-16T04:15:06;101029.91;;;-0.36;82.97
6387;BME280;3226;42.162;24.756;2023-02-16T04:17:34;101027.59;;;-0.53;83.44
6387;BME280;3226;42.162;24.756;2023-02-16T04:20:05;101024.34;;;-0.66;83.70
6387;BME280;3226;42.162;24.756;2023-02-16T04:22:33;101029.97;;;-1.04;84.72
6387;BME280;3226;42.162;24.756;2023-02-16T04:25:02;101025.41;;;-0.83;84.31
6387;BME280;3226;42.162;24.756;2023-02-16T04:27:30;100998.31;;;-1.09;84.27
6387;BME280;3226;42.162;24.756;2023-02-16T04:29:58;101026.41;;;-0.93;84.87
6387;BME280;3226;42.162;24.756;2023-02-16T04:32:26;101032.25;;;-0.82;84.34
6387;BME280;3226;42.162;24.756;2023-02-16T04:34:54;101027.38;;;-1.02;84.93
6387;BME280;3226;42.162;24.756;2023-02-16T04:37:23;101029.19;;;-1.10;84.95
6387;BME280;3226;42.162;24.756;2023-02-16T04:39:51;101037.50;;;-0.86;84.93
6387;BME280;3226;42.162;24.756;2023-02-16T04:42:19;101035.72;;;-0.83;84.61
6387;BME280;3226;42.162;24.756;2023-02-16T04:44:47;101043.44;;;-0.83;84.13
6387;BME280;3226;42.162;24.756;2023-02-16T04:47:15;101022.47;;;-1.21;84.82
6387;BME280;3226;42.162;24.756;2023-02-16T04:49:43;101036.34;;;-1.36;85.51
6387;BME280;3226;42.162;24.756;2023-02-16T04:52:14;101028.28;;;-1.08;85.03
6387;BME280;3226;42.162;24.756;2023-02-16T04:54:43;101040.22;;;-1.00;84.56
6387;BME280;3226;42.162;24.756;2023-02-16T04:57:11;101023.31;;;-1.20;84.93
6387;BME280;3226;42.162;24.756;2023-02-16T04:59:40;101049.69;;;-1.04;84.69
6387;BME280;3226;42.162;24.756;2023-02-16T05:02:08;101011.31;;;-1.20;84.35
6387;BME280;3226;42.162;24.756;2023-02-16T05:04:36;101049.66;;;-0.99;84.38
6387;BME280;3226;42.162;24.756;2023-02-16T05:07:04;101059.78;;;-0.87;84.35
6387;BME280;3226;42.162;24.756;2023-02-16T05:09:32;101061.53;;;-0.91;83.45
6387;BME280;3226;42.162;24.756;2023-02-16T05:12:01;101062.63;;;-1.10;84.87
6387;BME280;3226;42.162;24.756;2023-02-16T05:14:47;101067.06;;;-1.25;86.13
6387;BME280;3226;42.162;24.756;2023-02-16T05:17:16;101067.78;;;-1.10;85.28
6387;BME280;3226;42.162;24.756;2023-02-16T05:19:46;101067.78;;;-1.12;85.32
6387;BME280;3226;42.162;24.756;2023-02-16T05:22:15;101066.91;;;-1.09;84.99
6387;BME280;3226;42.162;24.756;2023-02-16T05:24:43;101065.28;;;-1.17;86.01
6387;BME280;3226;42.162;24.756;2023-02-16T05:27:15;101061.91;;;-1.22;87.03
6387;BME280;3226;42.162;24.756;2023-02-16T05:29:43;101061.53;;;-0.91;86.44
6387;BME280;3226;42.162;24.756;2023-02-16T05:32:12;101064.97;;;-0.92;85.46
6387;BME280;3226;42.162;24.756;2023-02-16T05:34:40;101075.41;;;-1.04;86.25
6387;BME280;3226;42.162;24.756;2023-02-16T05:37:10;101078.72;;;-0.96;85.70
6387;BME280;3226;42.162;24.756;2023-02-16T05:39:38;101079.53;;;-0.91;85.63
6387;BME280;3226;42.162;24.756;2023-02-16T05:42:06;101081.19;;;-0.83;85.82
6387;BME280;3226;42.162;24.756;2023-02-16T05:44:36;101081.66;;;-0.56;84.64
6387;BME280;3226;42.162;24.756;2023-02-16T05:47:04;101089.97;;;-1.02;85.59
6387;BME280;3226;42.162;24.756;2023-02-16T05:49:32;101088.97;;;-0.93;85.71
6387;BME280;3226;42.162;24.756;2023-02-16T05:52:00;101083.16;;;-1.09;85.94
6387;BME280;3226;42.162;24.756;2023-02-16T05:54:28;101088.06;;;-0.85;85.46
6387;BME280;3226;42.162;24.756;2023-02-16T05:56:56;101092.25;;;-0.80;84.86
6387;BME280;3226;42.162;24.756;2023-02-16T05:59:24;101092.25;;;-0.78;84.58
6387;BME280;3226;42.162;24.756;2023-02-16T06:01:54;101076.94;;;-0.91;84.10
6387;BME280;3226;42.162;24.756;2023-02-16T06:04:22;101097.31;;;-0.72;85.13
6387;BME280;3226;42.162;24.756;2023-02-16T06:06:50;101093.53;;;-0.43;83.85
6387;BME280;3226;42.162;24.756;2023-02-16T06:09:18;101093.63;;;-0.49;83.28
6387;BME280;3226;42.162;24.756;2023-02-16T06:11:46;101098.38;;;-0.23;82.11
6387;BME280;3226;42.162;24.756;2023-02-16T06:14:17;101100.56;;;0.04;81.52
6387;BME280;3226;42.162;24.756;2023-02-16T06:16:47;101098.25;;;-0.12;81.14
6387;BME280;3226;42.162;24.756;2023-02-16T06:19:18;101106.13;;;-0.24;81.69
6387;BME280;3226;42.162;24.756;2023-02-16T06:21:46;101101.00;;;0.31;80.12
6387;BME280;3226;42.162;24.756;2023-02-16T06:24:15;101091.41;;;0.40;79.45
6387;BME280;3226;42.162;24.756;2023-02-16T06:26:43;101104.81;;;0.60;78.43
6387;BME280;3226;42.162;24.756;2023-02-16T06:29:11;101108.56;;;0.90;77.08
6387;BME280;3226;42.162;24.756;2023-02-16T06:31:39;101114.78;;;0.80;77.21
6387;BME280;3226;42.162;24.756;2023-02-16T06:34:07;101091.41;;;0.88;76.65
6387;BME280;3226;42.162;24.756;2023-02-16T06:36:36;101111.06;;;0.93;76.25
6387;BME280;3226;42.162;24.756;2023-02-16T06:39:07;101111.94;;;0.94;76.33
6387;BME280;3226;42.162;24.756;2023-02-16T06:41:35;101113.75;;;0.89;76.46
6387;BME280;3226;42.162;24.756;2023-02-16T06:44:07;101114.72;;;0.83;76.58
6387;BME280;3226;42.162;24.756;2023-02-16T06:46:38;101113.69;;;0.92;76.93
6387;BME280;3226;42.162;24.756;2023-02-16T06:49:06;101117.75;;;1.05;76.37
6387;BME280;3226;42.162;24.756;2023-02-16T06:51:36;101114.03;;;1.19;76.47
6387;BME280;3226;42.162;24.756;2023-02-16T06:54:04;101089.59;;;0.93;76.48
6387;BME280;3226;42.162;24.756;2023-02-16T06:56:32;101116.00;;;1.06;77.19
6387;BME280;3226;42.162;24.756;2023-02-16T06:59:03;101111.38;;;1.22;76.17
6387;BME280;3226;42.162;24.756;2023-02-16T07:01:31;101119.13;;;1.22;77.01
6387;BME280;3226;42.162;24.756;2023-02-16T07:04:00;101123.38;;;1.26;77.14
6387;BME280;3226;42.162;24.756;2023-02-16T07:06:29;101100.97;;;1.28;76.07
6387;BME280;3226;42.162;24.756;2023-02-16T07:08:59;101127.09;;;1.53;75.29
6387;BME280;3226;42.162;24.756;2023-02-16T07:11:27;101131.16;;;1.65;74.77
6387;BME280;3226;42.162;24.756;2023-02-16T07:13:55;101131.94;;;1.69;74.78
6387;BME280;3226;42.162;24.756;2023-02-16T07:16:24;101113.91;;;1.67;74.94
6387;BME280;3226;42.162;24.756;2023-02-16T07:18:52;101135.25;;;1.74;75.05
6387;BME280;3226;42.162;24.756;2023-02-16T07:21:20;101133.69;;;1.67;75.25
6387;BME280;3226;42.162;24.756;2023-02-16T07:23:48;101132.50;;;1.82;75.38
6387;BME280;3226;42.162;24.756;2023-02-16T07:26:17;101136.69;;;1.87;74.79
6387;BME280;3226;42.162;24.756;2023-02-16T07:28:46;101138.53;;;2.20;74.30
6387;BME280;3226;42.162;24.756;2023-02-16T07:31:15;101131.31;;;2.35;73.36
6387;BME280;3226;42.162;24.756;2023-02-16T07:33:44;101125.38;;;2.29;73.29
6387;BME280;3226;42.162;24.756;2023-02-16T07:36:12;101130.25;;;2.42;73.18
6387;BME280;3226;42.162;24.756;2023-02-16T07:38:40;101126.59;;;2.51;73.15
6387;BME280;3226;42.162;24.756;2023-02-16T07:41:09;101106.00;;;2.48;72.17
6387;BME280;3226;42.162;24.756;2023-02-16T07:43:39;101121.72;;;2.73;71.78
6387;BME280;3226;42.162;24.756;2023-02-16T07:46:08;101121.47;;;2.82;71.06
6387;BME280;3226;42.162;24.756;2023-02-16T07:48:36;101125.03;;;3.10;69.97
6387;BME280;3226;42.162;24.756;2023-02-16T07:51:04;101125.56;;;3.23;69.43
6387;BME280;3226;42.162;24.756;2023-02-16T07:53:33;101128.19;;;3.51;69.97
6387;BME280;3226;42.162;24.756;2023-02-16T07:56:01;101136.81;;;3.82;68.94
6387;BME280;3226;42.162;24.756;2023-02-16T07:58:29;101128.44;;;4.00;68.68
6387;BME280;3226;42.162;24.756;2023-02-16T08:01:07;101137.50;;;3.87;66.12
6387;BME280;3226;42.162;24.756;2023-02-16T08:03:35;101131.72;;;4.05;66.75
6387;BME280;3226;42.162;24.756;2023-02-16T08:06:03;101112.44;;;4.41;65.13
6387;BME280;3226;42.162;24.756;2023-02-16T08:08:32;101136.03;;;5.35;60.94
6387;BME280;3226;42.162;24.756;2023-02-16T08:11:07;101139.28;;;6.10;57.75
6387;BME280;3226;42.162;24.756;2023-02-16T08:13:35;101121.03;;;6.53;55.26
6387;BME280;3226;42.162;24.756;2023-02-16T08:16:07;101130.84;;;6.26;55.72
6387;BME280;3226;42.162;24.756;2023-02-16T08:18:36;101136.94;;;6.68;54.99
6387;BME280;3226;42.162;24.756;2023-02-16T08:21:08;101135.63;;;6.36;56.51
6387;BME280;3226;42.162;24.756;2023-02-16T08:23:40;101138.78;;;7.05;53.80
6387;BME280;3226;42.162;24.756;2023-02-16T08:26:09;101135.75;;;6.75;53.80
6387;BME280;3226;42.162;24.756;2023-02-16T08:28:38;101137.78;;;7.29;52.92
6387;BME280;3226;42.162;24.756;2023-02-16T08:31:13;101129.38;;;7.03;53.06
6387;BME280;3226;42.162;24.756;2023-02-16T08:33:42;101121.63;;;6.80;52.97
6387;BME280;3226;42.162;24.756;2023-02-16T08:36:16;101134.09;;;7.14;52.34
6387;BME280;3226;42.162;24.756;2023-02-16T08:38:44;101144.16;;;7.98;49.18
6387;BME280;3226;42.162;24.756;2023-02-16T08:41:16;101134.59;;;7.60;50.52
6387;BME280;3226;42.162;24.756;2023-02-16T08:43:44;101128.47;;;7.61;50.54
6387;BME280;3226;42.162;24.756;2023-02-16T08:46:14;101128.47;;;8.17;48.47
6387;BME280;3226;42.162;24.756;2023-02-16T08:48:43;101121.66;;;8.50;47.78
6387;BME280;3226;42.162;24.756;2023-02-16T08:51:13;101128.66;;;8.67;47.14
6387;BME280;3226;42.162;24.756;2023-02-16T08:53:41;101116.56;;;8.82;47.47
6387;BME280;3226;42.162;24.756;2023-02-16T08:56:09;101119.41;;;7.88;49.09
6387;BME280;3226;42.162;24.756;2023-02-16T08:58:37;101122.44;;;7.61;50.51
6387;BME280;3226;42.162;24.756;2023-02-16T09:01:07;101119.94;;;8.14;50.15
6387;BME280;3226;42.162;24.756;2023-02-16T09:03:39;101120.78;;;7.77;50.14
6387;BME280;3226;42.162;24.756;2023-02-16T09:06:10;101112.72;;;8.19;49.22
6387;BME280;3226;42.162;24.756;2023-02-16T09:08:39;101119.03;;;8.32;49.49
6387;BME280;3226;42.162;24.756;2023-02-16T09:11:10;101113.19;;;8.45;48.85
6387;BME280;3226;42.162;24.756;2023-02-16T09:13:39;101112.88;;;7.98;49.73
6387;BME280;3226;42.162;24.756;2023-02-16T09:16:08;101112.91;;;7.60;50.01
6387;BME280;3226;42.162;24.756;2023-02-16T09:18:38;101115.59;;;7.58;51.76
6387;BME280;3226;42.162;24.756;2023-02-16T09:21:08;101103.75;;;8.24;49.49
6387;BME280;3226;42.162;24.756;2023-02-16T09:23:37;101101.22;;;8.05;49.58
6387;BME280;3226;42.162;24.756;2023-02-16T09:26:09;101101.34;;;8.20;49.95
6387;BME280;3226;42.162;24.756;2023-02-16T09:28:38;101083.78;;;8.06;49.32
6387;BME280;3226;42.162;24.756;2023-02-16T09:31:10;101090.69;;;8.07;48.95
6387;BME280;3226;42.162;24.756;2023-02-16T09:33:42;101096.38;;;8.15;49.66
6387;BME280;3226;42.162;24.756;2023-02-16T09:36:11;101091.38;;;8.28;48.39
6387;BME280;3226;42.162;24.756;2023-02-16T09:38:39;101094.84;;;7.74;49.79
6387;BME280;3226;42.162;24.756;2023-02-16T09:41:27;101086.88;;;8.14;50.11
6387;BME280;3226;42.162;24.756;2023-02-16T09:43:59;101082.53;;;8.13;50.31
6387;BME280;3226;42.162;24.756;2023-02-16T09:46:31;101073.19;;;8.27;49.36
6387;BME280;3226;42.162;24.756;2023-02-16T09:49:02;101085.22;;;8.82;47.52
6387;BME280;3226;42.162;24.756;2023-02-16T09:51:34;101082.38;;;8.87;48.25
6387;BME280;3226;42.162;24.756;2023-02-16T09:54:14;101074.56;;;9.19;47.40
6387;BME280;3226;42.162;24.756;2023-02-16T09:56:51;101081.59;;;9.18;46.88
6387;BME280;3226;42.162;24.756;2023-02-16T09:59:31;101078.97;;;9.18;46.73
6387;BME280;3226;42.162;24.756;2023-02-16T10:02:31;101074.53;;;8.87;47.23
6387;BME280;3226;42.162;24.756;2023-02-16T10:05:15;101063.69;;;9.26;47.01
6387;BME280;3226;42.162;24.756;2023-02-16T10:07:57;101060.88;;;9.94;44.63
6387;BME280;3226;42.162;24.756;2023-02-16T10:10:34;101060.94;;;10.08;43.68
6387;BME280;3226;42.162;24.756;2023-02-16T10:13:13;101057.91;;;9.37;45.20
6387;BME280;3226;42.162;24.756;2023-02-16T10:15:45;101051.63;;;8.92;46.46
6387;BME280;3226;42.162;24.756;2023-02-16T10:18:25;101050.94;;;8.88;46.56
6387;BME280;3226;42.162;24.756;2023-02-16T10:20:58;101049.28;;;9.51;45.22
6387;BME280;3226;42.162;24.756;2023-02-16T10:23:33;101046.53;;;9.85;44.28
6387;BME280;3226;42.162;24.756;2023-02-16T10:26:13;101042.31;;;9.82;44.75
6387;BME280;3226;42.162;24.756;2023-02-16T10:28:45;101030.06;;;9.20;45.14
6387;BME280;3226;42.162;24.756;2023-02-16T10:31:19;101039.50;;;9.07;45.82
6387;BME280;3226;42.162;24.756;2023-02-16T10:34:02;101037.22;;;9.33;45.60
6387;BME280;3226;42.162;24.756;2023-02-16T10:36:51;101029.81;;;9.25;45.38
6387;BME280;3226;42.162;24.756;2023-02-16T10:39:27;101032.09;;;9.15;45.01
6387;BME280;3226;42.162;24.756;2023-02-16T10:42:01;101029.03;;;8.91;45.97
6387;BME280;3226;42.162;24.756;2023-02-16T10:44:37;101022.81;;;9.42;46.08
6387;BME280;3226;42.162;24.756;2023-02-16T10:47:25;101023.31;;;9.16;45.64
6387;BME280;3226;42.162;24.756;2023-02-16T10:49:55;101017.06;;;9.35;45.66
6387;BME280;3226;42.162;24.756;2023-02-16T10:52:27;101014.72;;;9.46;45.59
6387;BME280;3226;42.162;24.756;2023-02-16T10:54:57;101013.00;;;9.61;44.81
6387;BME280;3226;42.162;24.756;2023-02-16T10:57:27;100989.50;;;9.29;45.10
6387;BME280;3226;42.162;24.756;2023-02-16T10:59:57;101007.81;;;9.45;45.06
6387;BME280;3226;42.162;24.756;2023-02-16T11:02:27;101010.47;;;9.44;44.92
6387;BME280;3226;42.162;24.756;2023-02-16T11:04:56;101003.59;;;9.26;44.69
6387;BME280;3226;42.162;24.756;2023-02-16T11:07:28;101001.56;;;9.32;45.37
6387;BME280;3226;42.162;24.756;2023-02-16T11:09:58;100990.69;;;9.70;44.27
6387;BME280;3226;42.162;24.756;2023-02-16T11:12:29;100989.00;;;9.69;44.22
6387;BME280;3226;42.162;24.756;2023-02-16T11:15:00;100975.19;;;9.97;43.63
6387;BME280;3226;42.162;24.756;2023-02-16T11:17:31;100986.53;;;10.12;43.42
6387;BME280;3226;42.162;24.756;2023-02-16T11:20:02;100972.00;;;9.92;42.61
6387;BME280;3226;42.162;24.756;2023-02-16T11:22:35;100971.75;;;9.81;43.52
6387;BME280;3226;42.162;24.756;2023-02-16T11:25:22;100973.91;;;10.34;42.66
6387;BME280;3226;42.162;24.756;2023-02-16T11:27:53;100964.75;;;10.26;42.37
6387;BME280;3226;42.162;24.756;2023-02-16T11:30:29;100963.31;;;10.06;42.60
6387;BME280;3226;42.162;24.756;2023-02-16T11:32:59;100961.84;;;10.31;41.94
6387;BME280;3226;42.162;24.756;2023-02-16T11:35:29;100963.97;;;10.10;42.58
6387;BME280;3226;42.162;24.756;2023-02-16T11:38:00;100954.00;;;9.86;42.98
6387;BME280;3226;42.162;24.756;2023-02-16T11:40:30;100940.50;;;9.94;43.35
6387;BME280;3226;42.162;24.756;2023-02-16T11:43:01;100948.75;;;10.17;42.74
6387;BME280;3226;42.162;24.756;2023-02-16T11:45:31;100943.63;;;10.44;42.00
6387;BME280;3226;42.162;24.756;2023-02-16T11:48:03;100941.38;;;10.52;41.67
6387;BME280;3226;42.162;24.756;2023-02-16T11:50:33;100942.50;;;10.34;42.09
6387;BME280;3226;42.162;24.756;2023-02-16T11:53:15;100938.66;;;10.68;41.73
6387;BME280;3226;42.162;24.756;2023-02-16T11:55:49;100937.75;;;10.55;41.62
6387;BME280;3226;42.162;24.756;2023-02-16T11:58:20;100930.78;;;10.68;41.21
6387;BME280;3226;42.162;24.756;2023-02-16T12:00:58;100925.56;;;10.68;40.85
6387;BME280;3226;42.162;24.756;2023-02-16T12:03:53;100921.03;;;10.85;40.50
6387;BME280;3226;42.162;24.756;2023-02-16T12:06:36;100923.78;;;10.11;41.66
6387;BME280;3226;42.162;24.756;2023-02-16T12:09:14;100908.91;;;9.82;42.71
6387;BME280;3226;42.162;24.756;2023-02-16T12:11:58;100901.31;;;9.78;43.84
6387;BME280;3226;42.162;24.756;2023-02-16T12:14:39;100904.56;;;9.67;42.54
6387;BME280;3226;42.162;24.756;2023-02-16T12:17:22;100904.78;;;9.78;43.04
6387;BME280;3226;42.162;24.756;2023-02-16T12:19:59;100903.47;;;10.00;42.45
6387;BME280;3226;42.162;24.756;2023-02-16T12:22:33;100900.13;;;10.27;42.05
6387;BME280;3226;42.162;24.756;2023-02-16T12:25:30;100892.81;;;10.61;41.42
6387;BME280;3226;42.162;24.756;2023-02-16T12:28:09;100874.75;;;10.71;40.93
6387;BME280;3226;42.162;24.756;2023-02-16T12:30:51;100872.19;;;10.84;40.06
6387;BME280;3226;42.162;24.756;2023-02-16T12:33:35;100877.09;;;11.03;40.14
6387;BME280;3226;42.162;24.756;2023-02-16T12:36:28;100874.34;;;11.05;39.98
6387;BME280;3226;42.162;24.756;2023-02-16T12:39:10;100869.16;;;10.63;40.06
6387;BME280;3226;42.162;24.756;2023-02-16T12:41:52;100864.47;;;10.95;39.96
6387;BME280;3226;42.162;24.756;2023-02-16T12:44:31;100859.16;;;11.10;39.83
6387;BME280;3226;42.162;24.756;2023-02-16T12:47:02;100859.44;;;11.33;38.76
6387;BME280;3226;42.162;24.756;2023-02-16T12:49:36;100851.34;;;11.36;39.27
6387;BME280;3226;42.162;24.756;2023-02-16T12:52:19;100847.81;;;11.50;39.11
6387;BME280;3226;42.162;24.756;2023-02-16T12:54:53;100831.22;;;11.36;38.75
6387;BME280;3226;42.162;24.756;2023-02-16T12:57:26;100844.97;;;10.99;39.37
6387;BME280;3226;42.162;24.756;2023-02-16T12:59:58;100839.84;;;10.98;39.70
6387;BME280;3226;42.162;24.756;2023-02-16T13:02:34;100838.47;;;10.92;40.27
6387;BME280;3226;42.162;24.756;2023-02-16T13:05:06;100831.38;;;11.07;39.24
6387;BME280;3226;42.162;24.756;2023-02-16T13:07:37;100813.94;;;10.93;39.46
6387;BME280;3226;42.162;24.756;2023-02-16T13:10:16;100824.97;;;11.11;39.11
6387;BME280;3226;42.162;24.756;2023-02-16T13:12:50;100809.75;;;11.04;39.03
6387;BME280;3226;42.162;24.756;2023-02-16T13:15:24;100823.31;;;11.10;39.22
6387;BME280;3226;42.162;24.756;2023-02-16T13:17:56;100829.09;;;11.16;39.09
6387;BME280;3226;42.162;24.756;2023-02-16T13:20:24;100812.09;;;11.08;39.30
6387;BME280;3226;42.162;24.756;2023-02-16T13:26:06;100819.06;;;11.35;38.51
6387;BME280;3226;42.162;24.756;2023-02-16T13:29:05;100806.13;;;11.19;38.69
6387;BME280;3226;42.162;24.756;2023-02-16T13:31:50;100780.69;;;10.81;39.16
6387;BME280;3226;42.162;24.756;2023-02-16T13:37:40;100769.91;;;10.98;39.21
6387;BME280;3226;42.162;24.756;2023-02-16T13:40:40;100787.59;;;11.35;38.72
6387;BME280;3226;42.162;24.756;2023-02-16T13:43:21;100796.81;;;11.41;38.29
6387;BME280;3226;42.162;24.756;2023-02-16T13:45:55;100789.06;;;11.52;38.38